createdAt,value
2023-01-03T00:02:45.366Z,9.72
2023-01-03T00:07:46.901Z,9.80
2023-01-03T00:12:48.395Z,9.74
2023-01-03T00:17:53.568Z,9.63
2023-01-03T00:22:56.086Z,9.58
2023-01-03T00:27:57.528Z,9.62
2023-01-03T00:32:59.391Z,9.63
2023-01-03T00:38:01.095Z,9.56
2023-01-03T00:43:02.510Z,9.54
2023-01-03T00:48:04.206Z,9.52
2023-01-03T00:53:05.841Z,9.46
2023-01-03T00:58:10.157Z,9.33
2023-01-03T01:03:11.775Z,9.23
2023-01-03T01:08:14.508Z,9.05
2023-01-03T01:13:16.006Z,9.05
2023-01-03T01:18:17.460Z,8.96
2023-01-03T01:23:19.058Z,8.83
2023-01-03T01:28:20.476Z,8.69
2023-01-03T01:33:21.936Z,8.58
2023-01-03T01:38:23.487Z,8.58
2023-01-03T01:43:25.043Z,8.58
2023-01-03T01:48:26.747Z,8.39
2023-01-03T01:53:33.704Z,8.32
2023-01-03T01:58:41.191Z,8.26
2023-01-03T02:03:46.041Z,8.20
2023-01-03T02:08:47.659Z,8.07
2023-01-03T02:13:58.585Z,8.12
2023-01-03T02:19:24.015Z,7.91
2023-01-03T02:24:44.397Z,7.95
2023-01-03T02:30:10.857Z,7.77
2023-01-03T02:35:25.089Z,7.84
2023-01-03T02:40:31.963Z,7.68
2023-01-03T02:45:52.101Z,7.59
2023-01-03T02:50:57.757Z,7.56
2023-01-03T02:56:06.036Z,7.50
2023-01-03T03:01:14.492Z,7.44
2023-01-03T03:07:01.715Z,7.46
2023-01-03T03:12:04.177Z,7.28
2023-01-03T03:17:19.710Z,7.37
2023-01-03T03:22:43.261Z,7.22
2023-01-03T03:27:47.748Z,7.08
2023-01-03T03:32:54.574Z,7.11
2023-01-03T03:37:59.804Z,7.04
2023-01-03T03:43:32.369Z,7.09
2023-01-03T03:48:53.294Z,7.08
2023-01-03T03:53:57.391Z,6.86
2023-01-03T03:59:05.893Z,6.86
2023-01-03T04:04:13.559Z,6.76
2023-01-03T04:09:15.938Z,6.69
2023-01-03T04:14:17.692Z,6.78
2023-01-03T04:19:19.162Z,6.65
2023-01-03T04:24:20.820Z,6.71
2023-01-03T04:29:22.367Z,6.76
2023-01-03T04:34:23.992Z,6.61
2023-01-03T04:39:25.415Z,6.35
2023-01-03T04:44:27.899Z,6.57
2023-01-03T04:49:29.385Z,6.47
2023-01-03T04:54:30.899Z,6.37
2023-01-03T04:59:32.512Z,6.30
2023-01-03T05:04:34.031Z,6.31
2023-01-03T05:09:35.628Z,6.37
2023-01-03T05:14:37.263Z,6.47
2023-01-03T05:19:43.802Z,6.23
2023-01-03T05:24:46.871Z,6.12
2023-01-03T05:29:52.792Z,5.94
2023-01-03T05:34:54.217Z,5.85
2023-01-03T05:39:57.205Z,5.80
2023-01-03T05:44:58.661Z,5.77
2023-01-03T05:50:00.220Z,5.86
2023-01-03T05:55:01.697Z,5.95
2023-01-03T06:00:04.442Z,5.61
2023-01-03T06:05:07.544Z,5.53
2023-01-03T06:10:09.760Z,5.65
2023-01-03T06:15:11.480Z,5.68
2023-01-03T06:20:13.516Z,5.51
2023-01-03T06:25:15.218Z,5.61
2023-01-03T06:30:18.050Z,5.69
2023-01-03T06:35:19.690Z,5.63
2023-01-03T06:40:21.158Z,5.59
2023-01-03T06:45:22.686Z,5.57
2023-01-03T06:50:24.701Z,5.45
2023-01-03T06:55:26.301Z,5.70
2023-01-03T07:00:27.738Z,5.61
2023-01-03T07:05:29.374Z,5.60
2023-01-03T07:10:30.955Z,5.84
2023-01-03T07:15:32.599Z,5.75
2023-01-03T07:20:34.461Z,5.79
2023-01-03T07:25:36.102Z,5.69
2023-01-03T07:30:44.204Z,5.66
2023-01-03T07:35:45.889Z,5.33
2023-01-03T07:40:47.452Z,5.37
2023-01-03T07:45:49.274Z,5.42
2023-01-03T07:50:56.701Z,5.30
2023-01-03T07:56:12.411Z,5.57
2023-01-03T08:01:20.710Z,5.52
2023-01-03T08:06:23.744Z,5.38
2023-01-03T08:11:26.441Z,5.42
2023-01-03T08:16:27.925Z,5.36
2023-01-03T08:21:29.729Z,5.45
2023-01-03T08:26:36.784Z,5.60
2023-01-03T08:31:50.640Z,5.61
2023-01-03T08:37:05.803Z,5.72
2023-01-03T08:42:09.387Z,5.91
2023-01-03T08:47:12.179Z,6.01
2023-01-03T08:52:16.688Z,5.78
2023-01-03T08:57:18.151Z,5.73
2023-01-03T09:02:19.836Z,5.82
2023-01-03T09:07:21.698Z,5.86
2023-01-03T09:12:23.143Z,6.06
2023-01-03T09:17:24.809Z,5.99
2023-01-03T09:22:26.348Z,6.23
2023-01-03T09:27:27.799Z,6.30
2023-01-03T09:32:29.388Z,6.37
2023-01-03T09:37:31.937Z,6.49
2023-01-03T09:42:36.590Z,6.69
2023-01-03T09:47:39.390Z,6.76
2023-01-03T09:52:44.622Z,7.03
2023-01-03T09:57:46.239Z,7.35
2023-01-03T10:03:15.187Z,7.47
2023-01-03T10:08:41.880Z,7.60
2023-01-03T10:13:52.311Z,7.77
2023-01-03T10:19:26.028Z,7.83
2023-01-03T10:24:31.899Z,7.81
2023-01-03T10:29:34.833Z,7.96
2023-01-03T10:34:38.182Z,7.96
2023-01-03T10:39:41.649Z,7.96
2023-01-03T10:44:57.676Z,8.12
2023-01-03T10:50:00.032Z,8.18
2023-01-03T10:55:13.196Z,8.43
2023-01-03T11:00:26.740Z,8.48
2023-01-03T11:05:28.371Z,8.59
2023-01-03T11:10:57.420Z,8.52
2023-01-03T11:16:02.228Z,8.66
2023-01-03T11:21:22.809Z,8.69
2023-01-03T11:26:50.225Z,8.79
2023-01-03T12:24:45.124Z,9.31
2023-01-03T12:29:56.903Z,9.38
2023-01-03T12:35:17.095Z,9.52
2023-01-03T12:40:30.556Z,9.54
2023-01-03T12:45:43.273Z,9.62
2023-01-03T12:50:50.430Z,9.70
2023-01-03T12:56:16.641Z,9.70
2023-01-03T13:01:22.869Z,9.73
2023-01-03T13:06:32.709Z,9.87
2023-01-03T13:11:41.575Z,9.96
2023-01-03T13:16:48.116Z,10.04
2023-01-03T13:21:55.819Z,10.04
2023-01-03T13:27:41.440Z,10.06
2023-01-03T13:33:03.178Z,9.97
2023-01-03T13:38:24.587Z,10.26
2023-01-03T13:43:39.305Z,10.26
2023-01-03T13:48:52.899Z,10.23
2023-01-03T13:54:05.662Z,10.20
2023-01-03T13:59:32.706Z,10.13
2023-01-03T14:04:53.070Z,10.01
2023-01-03T14:10:00.335Z,10.11
2023-01-03T14:15:23.131Z,10.07
2023-01-03T14:20:32.314Z,10.07
2023-01-03T14:25:38.148Z,10.05
2023-01-03T14:30:39.578Z,10.13
2023-01-03T14:35:42.382Z,10.07
2023-01-03T14:40:46.742Z,10.01
2023-01-03T14:46:04.306Z,9.88
2023-01-03T14:51:07.796Z,9.57
2023-01-03T14:56:10.774Z,9.46
2023-01-03T15:01:13.575Z,9.44
2023-01-03T15:06:25.303Z,9.37
2023-01-03T15:11:37.954Z,9.19
2023-01-03T15:16:43.032Z,9.12
2023-01-03T15:21:44.780Z,9.03
2023-01-03T15:26:49.066Z,8.89
2023-01-03T15:31:53.443Z,8.77
2023-01-03T15:36:58.803Z,8.67
2023-01-03T15:47:29.639Z,8.75
2023-01-03T15:52:31.064Z,8.72
2023-01-03T15:57:33.003Z,8.69
2023-01-03T16:02:34.669Z,8.73
2023-01-03T16:07:36.195Z,8.60
2023-01-03T16:12:40.136Z,8.63
2023-01-03T16:17:41.929Z,8.68
2023-01-03T16:22:57.684Z,8.58
2023-01-03T16:28:05.731Z,8.41
2023-01-03T16:33:19.157Z,8.45
2023-01-03T16:38:20.662Z,8.45
2023-01-03T16:43:27.074Z,8.42
2023-01-03T16:48:36.614Z,8.49
2023-01-03T16:53:40.380Z,8.55
2023-01-03T16:58:42.167Z,8.52
2023-01-03T17:03:43.806Z,8.40
2023-01-03T17:08:45.440Z,8.29
2023-01-03T17:13:48.299Z,8.14
2023-01-03T17:18:50.391Z,8.03
2023-01-03T17:24:15.704Z,7.97
2023-01-03T17:29:23.988Z,7.94
2023-01-03T17:34:29.114Z,7.89
2023-01-03T17:39:30.894Z,7.84
2023-01-03T17:44:32.533Z,7.83
2023-01-03T17:49:34.032Z,7.93
2023-01-03T17:54:40.760Z,8.04
2023-01-03T17:59:42.333Z,8.13
2023-01-03T18:05:14.169Z,8.18
2023-01-03T18:10:05.948Z,8.02
2023-01-03T18:15:19.487Z,8.12
2023-01-03T18:20:21.491Z,8.16
2023-01-03T18:25:25.097Z,7.83
2023-01-03T18:30:26.965Z,7.85
2023-01-03T18:35:34.036Z,7.77
2023-01-03T18:40:39.405Z,7.73
2023-01-03T18:45:41.905Z,7.59
2023-01-03T18:50:44.611Z,7.62
2023-01-03T18:55:46.683Z,7.58
2023-01-03T19:00:57.600Z,7.46
2023-01-03T19:06:02.763Z,7.30
2023-01-03T19:11:07.702Z,7.36
2023-01-03T19:16:09.269Z,7.46
2023-01-03T19:21:13.596Z,7.39
2023-01-03T19:26:31.731Z,7.31
2023-01-03T19:31:43.225Z,7.19
2023-01-03T19:36:45.372Z,7.28
2023-01-03T19:41:55.523Z,7.60
2023-01-03T19:46:57.270Z,7.59
2023-01-03T19:51:58.797Z,7.48
2023-01-03T19:57:01.107Z,7.57
2023-01-03T20:02:25.775Z,7.46
2023-01-03T20:07:27.918Z,7.57
2023-01-03T20:12:29.377Z,7.61
2023-01-03T20:17:30.908Z,7.63
2023-01-03T20:27:55.022Z,7.64
2023-01-03T20:32:56.655Z,7.93
2023-01-03T20:37:58.455Z,7.96
2023-01-03T20:43:02.516Z,7.94
2023-01-03T20:48:04.085Z,8.05
2023-01-03T20:53:05.683Z,8.09
2023-01-03T20:58:15.653Z,7.85
2023-01-03T21:03:17.437Z,7.74
2023-01-03T21:08:19.358Z,7.78
2023-01-03T21:13:21.389Z,7.80
2023-01-03T21:18:22.876Z,7.89
2023-01-03T21:23:25.664Z,7.90
2023-01-03T21:28:27.201Z,7.73
2023-01-03T21:33:28.862Z,7.80
2023-01-03T21:38:30.545Z,7.86
2023-01-03T21:43:32.059Z,7.85
2023-01-03T21:48:33.722Z,7.95
2023-01-03T21:53:35.526Z,7.95
2023-01-03T21:58:37.807Z,7.85
2023-01-03T22:03:39.650Z,7.67
2023-01-03T22:08:41.384Z,7.61
2023-01-03T22:13:42.928Z,7.76
2023-01-03T22:18:44.429Z,7.42
2023-01-03T22:23:46.090Z,7.58
2023-01-03T22:28:47.806Z,7.74
2023-01-03T22:33:50.118Z,7.46
2023-01-03T22:38:52.747Z,7.66
2023-01-03T22:43:54.188Z,7.49
2023-01-03T22:48:55.952Z,7.55
2023-01-03T22:53:57.663Z,7.57
2023-01-03T22:58:59.129Z,7.65
2023-01-03T23:04:00.983Z,7.72
2023-01-03T23:09:03.664Z,7.64
2023-01-03T23:14:10.880Z,7.68
2023-01-03T23:19:15.905Z,7.74
2023-01-03T23:24:20.599Z,7.95
2023-01-03T23:29:22.158Z,8.02
2023-01-03T23:34:23.665Z,7.95
2023-01-03T23:39:25.333Z,7.73
2023-01-03T23:44:26.902Z,7.90
2023-01-03T23:49:28.374Z,8.05
2023-01-03T23:54:29.988Z,8.05
2023-01-03T23:59:31.847Z,8.23
